Time;durP1;ratioP1;P1;durP2;ratioP2;P2;SDS_P1;SDS_P2;PMS_P1;PMS_P2;Temp;Humidity;BMP_temperature;BMP_pressure;BME280_temperature;BME280_humidity;BME280_pressure;Samples;Min_cycle;Max_cycle;Signal;HPM_P1;HPM_P2
2022/01/29 03:03:38;;;;;;;64.45;21.70;;;;;;;;;;5005357;28;20556;-81
2022/01/29 03:06:09;;;;;;;66.90;21.85;;;;;;;;;;5001479;28;20112;-81
2022/01/29 03:08:37;;;;;;;66.82;22.20;;;;;;;;;;5006316;28;20054;-81
2022/01/29 03:11:05;;;;;;;66.90;22.75;;;;;;;;;;5001361;28;20050;-81
2022/01/29 03:13:33;;;;;;;61.65;21.83;;;;;;;;;;4998587;28;20421;-81
2022/01/29 03:16:01;;;;;;;63.30;22.20;;;;;;;;;;5002395;28;20081;-81
2022/01/29 03:18:29;;;;;;;59.20;21.52;;;;;;;;;;4987869;28;20054;-81
2022/01/29 03:20:57;;;;;;;69.60;22.20;;;;;;;;;;4988332;28;20054;-81
2022/01/29 03:23:24;;;;;;;66.15;21.98;;;;;;;;;;4998953;28;20062;-81
2022/01/29 03:25:52;;;;;;;61.40;20.17;;;;;;;;;;5002027;28;20307;-81
2022/01/29 03:28:20;;;;;;;75.13;22.33;;;;;;;;;;5005561;28;20065;-81
2022/01/29 03:30:49;;;;;;;67.63;21.10;;;;;;;;;;5002679;28;20045;-81
2022/01/29 03:33:16;;;;;;;65.93;21.38;;;;;;;;;;5000068;28;20450;-81
2022/01/29 03:35:45;;;;;;;58.75;20.05;;;;;;;;;;4999737;28;20048;-81
2022/01/29 03:38:13;;;;;;;65.28;21.08;;;;;;;;;;4999449;28;20146;-81
2022/01/29 03:40:41;;;;;;;55.97;20.35;;;;;;;;;;5000935;28;20153;-81
2022/01/29 03:43:12;;;;;;;62.28;20.75;;;;;;;;;;4984715;28;20062;-81
2022/01/29 03:45:41;;;;;;;64.18;18.90;;;;;;;;;;4994246;28;20058;-81
2022/01/29 03:48:08;;;;;;;62.47;21.38;;;;;;;;;;4993123;28;20453;-81
2022/01/29 03:50:39;;;;;;;66.88;22.05;;;;;;;;;;5002379;28;20062;-81
2022/01/29 03:53:07;;;;;;;51.78;20.23;;;;;;;;;;5005569;28;20094;-81
2022/01/29 03:55:34;;;;;;;58.45;20.00;;;;;;;;;;5000348;28;20564;-81
2022/01/29 03:58:02;;;;;;;70.18;23.63;;;;;;;;;;5002457;28;20076;-81
2022/01/29 04:00:30;;;;;;;60.70;20.58;;;;;;;;;;4986652;28;20065;-80
2022/01/29 04:02:58;;;;;;;62.17;19.73;;;;;;;;;;5002131;28;20061;-81
2022/01/29 04:05:26;;;;;;;61.45;19.33;;;;;;;;;;5002358;28;20058;-81
2022/01/29 04:07:54;;;;;;;62.75;19.98;;;;;;;;;;5009902;28;20049;-81
2022/01/29 04:10:23;;;;;;;53.22;19.05;;;;;;;;;;4990023;28;20965;-81
2022/01/29 04:12:53;;;;;;;58.40;19.73;;;;;;;;;;4998491;28;20056;-81
2022/01/29 04:15:20;;;;;;;52.40;18.08;;;;;;;;;;4999134;28;21547;-81
2022/01/29 04:17:48;;;;;;;50.40;19.75;;;;;;;;;;5000164;28;20058;-81
2022/01/29 04:20:16;;;;;;;63.85;18.45;;;;;;;;;;4986992;28;20060;-81
2022/01/29 04:22:44;;;;;;;56.95;19.48;;;;;;;;;;5000114;28;20058;-81
2022/01/29 04:25:12;;;;;;;60.40;20.65;;;;;;;;;;5001339;28;20057;-81
2022/01/29 04:27:45;;;;;;;53.22;18.50;;;;;;;;;;4980499;28;21075;-81
2022/01/29 04:33:24;;;;;;;59.63;19.95;;;;;;;;;;4957730;28;20067;-81
2022/01/29 04:35:52;;;;;;;53.75;18.05;;;;;;;;;;4942476;28;20769;-81
2022/01/29 04:38:20;;;;;;;46.85;18.00;;;;;;;;;;4943768;28;20063;-81
2022/01/29 04:40:48;;;;;;;50.53;17.55;;;;;;;;;;4943078;28;20055;-81
2022/01/29 04:43:16;;;;;;;60.65;19.92;;;;;;;;;;4941344;28;20502;-81
2022/01/29 04:45:44;;;;;;;60.53;18.55;;;;;;;;;;4959456;28;20043;-81
2022/01/29 04:48:12;;;;;;;52.55;18.50;;;;;;;;;;4942095;28;20063;-81
2022/01/29 04:50:41;;;;;;;57.22;19.92;;;;;;;;;;4944908;28;20182;-81
2022/01/29 04:53:10;;;;;;;53.17;18.55;;;;;;;;;;4987300;28;20054;-81
2022/01/29 04:55:38;;;;;;;52.85;18.38;;;;;;;;;;4969538;28;20044;-81
2022/01/29 04:58:06;;;;;;;64.00;18.77;;;;;;;;;;4967580;28;20059;-81
2022/01/29 05:00:35;;;;;;;48.88;16.75;;;;;;;;;;4950354;28;20059;-81
2022/01/29 05:03:13;;;;;;;51.58;17.45;;;;;;;;;;4949676;28;20063;-81
2022/01/29 05:05:41;;;;;;;50.38;16.25;;;;;;;;;;4945928;28;20086;-81
2022/01/29 05:08:11;;;;;;;55.97;17.92;;;;;;;;;;4947418;28;20058;-81
2022/01/29 05:10:38;;;;;;;45.75;17.33;;;;;;;;;;4981892;28;20057;-80
2022/01/29 05:13:09;;;;;;;47.72;17.48;;;;;;;;;;5002781;28;20050;-81
2022/01/29 05:15:42;;;;;;;51.92;15.75;;;;;;;;;;4995970;28;20049;-81
2022/01/29 05:29:14;;;;;;;47.15;15.18;;;;;;;;;;4998168;28;20426;-81
2022/01/29 05:31:43;;;;;;;44.38;15.82;;;;;;;;;;4985517;28;20050;-81
2022/01/29 05:34:10;;;;;;;46.17;15.27;;;;;;;;;;4998800;28;20061;-81
2022/01/29 05:36:38;;;;;;;40.42;14.93;;;;;;;;;;4997599;28;20050;-81
2022/01/29 05:39:06;;;;;;;44.88;15.88;;;;;;;;;;4997345;28;20389;-81
2022/01/29 05:41:34;;;;;;;43.33;15.00;;;;;;;;;;5000265;28;20057;-81
2022/01/29 05:44:02;;;;;;;44.08;15.43;;;;;;;;;;5005553;28;20072;-81
2022/01/29 05:46:30;;;;;;;49.58;16.02;;;;;;;;;;4970418;28;20056;-81
2022/01/29 05:48:58;;;;;;;48.83;15.48;;;;;;;;;;5003280;28;20425;-81
2022/01/29 05:51:30;;;;;;;49.60;15.73;;;;;;;;;;5003836;28;20056;-81
2022/01/29 05:53:59;;;;;;;46.33;15.60;;;;;;;;;;4998970;28;20050;-81
2022/01/29 05:56:26;;;;;;;41.42;14.20;;;;;;;;;;4983230;28;20048;-81
2022/01/29 05:58:54;;;;;;;44.17;15.63;;;;;;;;;;5003692;28;20060;-81
2022/01/29 06:01:22;;;;;;;41.03;15.00;;;;;;;;;;5002327;28;20050;-81
2022/01/29 06:03:50;;;;;;;42.45;14.68;;;;;;;;;;4999314;28;20485;-81
2022/01/29 06:06:18;;;;;;;47.95;15.80;;;;;;;;;;4992696;28;20125;-81
2022/01/29 06:08:46;;;;;;;51.70;15.05;;;;;;;;;;5002053;28;20096;-81
2022/01/29 06:11:14;;;;;;;51.03;15.77;;;;;;;;;;5001776;28;20058;-81
2022/01/29 06:13:42;;;;;;;54.35;16.98;;;;;;;;;;4987238;28;20041;-81
2022/01/29 06:16:11;;;;;;;45.47;15.23;;;;;;;;;;5001665;28;20056;-80
2022/01/29 06:18:38;;;;;;;40.92;13.93;;;;;;;;;;4983705;28;20065;-81
2022/01/29 06:21:08;;;;;;;38.42;14.07;;;;;;;;;;5004657;28;20053;-80
2022/01/29 06:23:38;;;;;;;37.13;13.70;;;;;;;;;;5005520;28;20042;-80
2022/01/29 06:26:12;;;;;;;42.78;15.43;;;;;;;;;;5002992;28;20049;-81
2022/01/29 06:28:40;;;;;;;41.28;13.73;;;;;;;;;;4999368;28;20049;-80
2022/01/29 06:31:09;;;;;;;39.15;14.05;;;;;;;;;;5003578;28;20058;-80
2022/01/29 06:33:36;;;;;;;41.63;14.27;;;;;;;;;;5002528;28;20154;-80
2022/01/29 06:36:04;;;;;;;45.08;13.65;;;;;;;;;;4985389;28;20046;-80
2022/01/29 06:38:32;;;;;;;37.78;13.98;;;;;;;;;;5003423;28;20058;-80
2022/01/29 06:41:00;;;;;;;40.10;13.82;;;;;;;;;;5006311;28;20073;-81
2022/01/29 06:43:28;;;;;;;36.95;13.77;;;;;;;;;;5005491;28;20056;-81
2022/01/29 06:45:56;;;;;;;45.22;14.75;;;;;;;;;;5001963;28;20050;-81
2022/01/29 06:48:24;;;;;;;44.00;13.70;;;;;;;;;;4995449;28;20125;-81
2022/01/29 06:50:52;;;;;;;46.38;15.43;;;;;;;;;;5004419;28;20103;-81
2022/01/29 06:53:20;;;;;;;39.28;13.70;;;;;;;;;;5001013;28;20045;-81
2022/01/29 06:55:48;;;;;;;46.22;15.18;;;;;;;;;;4998253;28;20133;-81
2022/01/29 06:58:16;;;;;;;51.20;15.63;;;;;;;;;;5004327;28;20046;-81
2022/01/29 07:01:04;;;;;;;44.30;14.45;;;;;;;;;;5000624;28;20112;-80
2022/01/29 07:03:32;;;;;;;45.15;14.95;;;;;;;;;;5002342;28;20058;-80
2022/01/29 07:06:00;;;;;;;52.25;15.55;;;;;;;;;;5001116;28;20057;-80
2022/01/29 07:08:28;;;;;;;56.92;16.90;;;;;;;;;;5002988;28;20060;-80
2022/01/29 07:10:56;;;;;;;53.00;16.65;;;;;;;;;;4999700;28;20081;-80
2022/01/29 07:13:25;;;;;;;47.60;15.50;;;;;;;;;;5003698;28;20050;-80
2022/01/29 07:15:52;;;;;;;48.60;16.35;;;;;;;;;;5001355;28;20046;-80
2022/01/29 07:18:20;;;;;;;51.55;14.73;;;;;;;;;;5001086;28;20038;-80
2022/01/29 07:20:48;;;;;;;46.03;15.07;;;;;;;;;;5002076;28;21893;-81
2022/01/29 07:23:16;;;;;;;44.67;14.48;;;;;;;;;;4992978;28;20050;-81
2022/01/29 07:25:44;;;;;;;42.50;15.82;;;;;;;;;;5001254;28;20037;-81
2022/01/29 07:28:12;;;;;;;50.33;16.05;;;;;;;;;;5000740;28;20064;-81
2022/01/29 07:30:41;;;;;;;49.05;15.88;;;;;;;;;;5002986;28;20056;-81
2022/01/29 07:33:08;;;;;;;45.47;14.93;;;;;;;;;;5004518;28;20069;-81
2022/01/29 07:35:36;;;;;;;42.72;14.98;;;;;;;;;;4999561;28;20453;-81
2022/01/29 07:38:04;;;;;;;50.67;16.13;;;;;;;;;;5002347;28;20104;-81
2022/01/29 07:40:32;;;;;;;41.42;14.82;;;;;;;;;;5004323;28;20172;-81
2022/01/29 07:43:00;;;;;;;47.58;16.38;;;;;;;;;;5004132;28;20049;-81
2022/01/29 07:45:29;;;;;;;46.33;15.35;;;;;;;;;;4999040;28;20120;-81
2022/01/29 07:47:56;;;;;;;37.65;14.30;;;;;;;;;;5001805;28;20054;-81
2022/01/29 07:50:27;;;;;;;47.65;14.25;;;;;;;;;;4984633;28;20053;-81
2022/01/29 07:53:00;;;;;;;39.90;14.32;;;;;;;;;;5001335;28;20128;-80
2022/01/29 07:55:32;;;;;;;37.97;13.77;;;;;;;;;;4973209;28;20064;-80
2022/01/29 07:58:01;;;;;;;33.72;12.90;;;;;;;;;;5004756;28;20522;-81
2022/01/29 08:00:34;;;;;;;32.55;11.00;;;;;;;;;;4993270;28;20425;-80
2022/01/29 08:03:03;;;;;;;33.75;12.50;;;;;;;;;;5003132;28;20052;-81
2022/01/29 08:05:34;;;;;;;29.35;12.00;;;;;;;;;;5001519;28;20441;-80
2022/01/29 08:08:02;;;;;;;35.50;12.00;;;;;;;;;;5000974;28;20054;-80
2022/01/29 08:10:30;;;;;;;30.63;11.55;;;;;;;;;;4999597;28;20756;-81
2022/01/29 08:12:59;;;;;;;34.20;11.98;;;;;;;;;;5000423;28;20125;-81
2022/01/29 08:15:27;;;;;;;28.48;10.80;;;;;;;;;;4998523;28;20558;-81
2022/01/29 08:17:55;;;;;;;33.10;11.20;;;;;;;;;;4967203;28;20440;-81
2022/01/29 08:20:23;;;;;;;25.33;10.45;;;;;;;;;;4999177;28;20049;-81
2022/01/29 08:22:51;;;;;;;26.70;10.13;;;;;;;;;;5001683;28;20107;-81
2022/01/29 08:25:19;;;;;;;30.38;10.23;;;;;;;;;;4999001;28;20093;-81
2022/01/29 08:27:47;;;;;;;28.30;9.82;;;;;;;;;;4983599;28;20062;-81
2022/01/29 08:30:15;;;;;;;25.15;9.30;;;;;;;;;;5002776;28;20525;-81
2022/01/29 08:32:43;;;;;;;25.75;9.85;;;;;;;;;;4999058;28;20061;-81
2022/01/29 08:35:14;;;;;;;22.05;7.80;;;;;;;;;;5000116;28;20054;-81
2022/01/29 08:37:41;;;;;;;18.48;8.90;;;;;;;;;;5001294;28;20046;-81
2022/01/29 08:40:10;;;;;;;23.60;9.93;;;;;;;;;;5000354;28;20073;-81
2022/01/29 08:42:38;;;;;;;20.35;8.77;;;;;;;;;;4997565;28;20057;-81
2022/01/29 08:45:07;;;;;;;23.02;9.32;;;;;;;;;;5002258;28;20050;-81
2022/01/29 08:47:37;;;;;;;23.80;9.40;;;;;;;;;;5001432;28;20053;-81
2022/01/29 08:50:07;;;;;;;30.35;9.48;;;;;;;;;;5001691;28;20137;-81
2022/01/29 08:52:34;;;;;;;19.42;8.60;;;;;;;;;;4999483;28;20065;-81
2022/01/29 08:55:03;;;;;;;23.92;8.82;;;;;;;;;;4982945;28;20058;-81
2022/01/29 08:57:32;;;;;;;18.45;8.52;;;;;;;;;;5003038;28;20049;-82
2022/01/29 09:00:00;;;;;;;17.50;8.10;;;;;;;;;;4995147;28;20061;-81
2022/01/29 09:02:30;;;;;;;17.90;8.38;;;;;;;;;;5000739;28;20053;-80
2022/01/29 09:04:58;;;;;;;17.65;8.23;;;;;;;;;;4999296;28;20425;-80
2022/01/29 09:07:26;;;;;;;21.88;8.15;;;;;;;;;;5000654;28;20145;-81
2022/01/29 09:09:55;;;;;;;19.52;8.18;;;;;;;;;;4995889;28;20576;-81
2022/01/29 09:12:22;;;;;;;22.75;8.43;;;;;;;;;;5002925;28;20098;-81
2022/01/29 09:14:50;;;;;;;19.27;6.78;;;;;;;;;;4982386;28;20076;-81
2022/01/29 09:17:18;;;;;;;19.42;7.13;;;;;;;;;;5000590;28;20042;-81
2022/01/29 09:19:47;;;;;;;20.00;7.07;;;;;;;;;;5003789;28;20057;-80
2022/01/29 09:22:16;;;;;;;17.13;6.93;;;;;;;;;;5004454;28;20463;-80
2022/01/29 09:24:44;;;;;;;18.70;7.45;;;;;;;;;;5001644;28;20050;-81
2022/01/29 09:27:12;;;;;;;17.42;7.63;;;;;;;;;;4987206;28;20053;-81
2022/01/29 09:29:40;;;;;;;15.07;6.13;;;;;;;;;;5005489;28;20389;-81
2022/01/29 09:32:08;;;;;;;15.07;6.82;;;;;;;;;;4987782;28;21043;-81
2022/01/29 09:34:36;;;;;;;19.20;6.65;;;;;;;;;;4999476;28;20213;-81
2022/01/29 09:37:04;;;;;;;18.85;6.70;;;;;;;;;;5004197;28;20083;-82
2022/01/29 09:39:32;;;;;;;15.07;6.63;;;;;;;;;;5002375;28;20064;-81
2022/01/29 09:42:01;;;;;;;18.30;6.80;;;;;;;;;;4998988;28;20060;-80
2022/01/29 09:44:28;;;;;;;17.90;6.28;;;;;;;;;;5002417;28;20046;-80
2022/01/29 09:46:56;;;;;;;15.45;6.20;;;;;;;;;;4986613;28;20050;-80
2022/01/29 09:49:24;;;;;;;19.27;6.53;;;;;;;;;;5003129;28;20069;-80
2022/01/29 09:51:52;;;;;;;16.88;6.60;;;;;;;;;;5000547;28;20050;-80
2022/01/29 09:54:20;;;;;;;13.45;5.60;;;;;;;;;;5003222;28;20405;-81
2022/01/29 09:56:48;;;;;;;12.70;6.15;;;;;;;;;;4988491;28;20053;-80
2022/01/29 09:59:26;;;;;;;15.23;6.95;;;;;;;;;;4994368;28;20068;-84
2022/01/29 10:01:54;;;;;;;16.42;6.22;;;;;;;;;;5003596;28;20053;-80
2022/01/29 10:04:24;;;;;;;15.40;6.15;;;;;;;;;;4985533;28;20069;-81
2022/01/29 10:07:12;;;;;;;14.52;5.60;;;;;;;;;;4998915;28;20053;-81
2022/01/29 10:09:40;;;;;;;15.93;6.75;;;;;;;;;;5002179;28;20053;-80
2022/01/29 10:12:18;;;;;;;17.02;6.57;;;;;;;;;;5003857;28;20073;-81
2022/01/29 10:14:54;;;;;;;16.38;5.32;;;;;;;;;;4982578;28;20124;-81
2022/01/29 10:18:03;;;;;;;14.52;5.60;;;;;;;;;;4970074;28;20054;-81
2022/01/29 10:20:31;;;;;;;14.27;5.70;;;;;;;;;;4996203;28;20058;-80
2022/01/29 10:23:03;;;;;;;12.45;5.20;;;;;;;;;;5001245;28;20631;-80
2022/01/29 10:25:32;;;;;;;15.27;6.45;;;;;;;;;;4998872;28;20104;-81
2022/01/29 10:28:15;;;;;;;12.18;5.65;;;;;;;;;;4997803;28;20045;-81
2022/01/29 10:30:54;;;;;;;13.88;5.85;;;;;;;;;;5001457;28;20059;-80
2022/01/29 10:33:26;;;;;;;11.95;4.95;;;;;;;;;;5000104;28;20119;-82
2022/01/29 10:36:14;;;;;;;10.35;5.10;;;;;;;;;;4999376;28;20054;-80
2022/01/29 10:38:57;;;;;;;11.00;4.65;;;;;;;;;;4998803;28;20050;-80
2022/01/29 10:41:30;;;;;;;10.85;4.63;;;;;;;;;;4997613;28;20056;-80
2022/01/29 10:44:11;;;;;;;10.90;4.88;;;;;;;;;;5003653;28;20058;-80
2022/01/29 10:46:47;;;;;;;12.32;4.82;;;;;;;;;;4998374;28;20057;-80
2022/01/29 10:49:20;;;;;;;9.40;4.63;;;;;;;;;;5000616;28;20424;-80
2022/01/29 10:52:00;;;;;;;13.38;4.57;;;;;;;;;;4998956;28;20052;-81
2022/01/29 10:54:29;;;;;;;12.05;3.97;;;;;;;;;;4999352;28;20050;-81
2022/01/29 10:57:04;;;;;;;11.25;5.13;;;;;;;;;;4985381;28;20069;-81
2022/01/29 10:59:46;;;;;;;10.10;4.40;;;;;;;;;;4997829;28;20140;-80
2022/01/29 11:02:14;;;;;;;12.27;5.03;;;;;;;;;;4999980;28;20050;-80
2022/01/29 11:04:43;;;;;;;8.80;4.82;;;;;;;;;;4999595;28;20053;-80
2022/01/29 11:07:23;;;;;;;9.32;4.32;;;;;;;;;;4983374;28;20534;-81
2022/01/29 11:09:51;;;;;;;10.48;5.10;;;;;;;;;;5000597;28;20509;-80
2022/01/29 11:12:20;;;;;;;11.18;4.70;;;;;;;;;;4985250;28;20054;-81
2022/01/29 11:14:50;;;;;;;12.60;5.50;;;;;;;;;;4992769;28;20056;-81
2022/01/29 11:17:18;;;;;;;12.07;4.82;;;;;;;;;;4992711;28;20050;-81
2022/01/29 11:19:46;;;;;;;10.80;5.05;;;;;;;;;;4983110;28;20066;-81
2022/01/29 11:22:20;;;;;;;11.23;4.93;;;;;;;;;;4999654;28;20133;-81
2022/01/29 11:24:49;;;;;;;13.88;5.28;;;;;;;;;;4999309;28;20085;-81
2022/01/29 11:27:23;;;;;;;14.45;6.15;;;;;;;;;;4998706;28;20041;-81
2022/01/29 11:30:01;;;;;;;16.42;5.20;;;;;;;;;;5001282;28;20107;-81
2022/01/29 11:32:32;;;;;;;12.60;5.45;;;;;;;;;;5001286;28;20060;-81
2022/01/29 11:35:06;;;;;;;13.88;5.53;;;;;;;;;;5005313;28;20041;-81
2022/01/29 11:37:57;;;;;;;14.40;6.05;;;;;;;;;;4995461;28;20416;-81
2022/01/29 11:40:33;;;;;;;14.73;6.53;;;;;;;;;;4991438;28;20108;-80
2022/01/29 11:47:21;;;;;;;12.10;5.50;;;;;;;;;;5001172;28;20487;-80
2022/01/29 11:49:51;;;;;;;12.60;5.32;;;;;;;;;;5000162;28;20104;-80
2022/01/29 11:52:21;;;;;;;14.65;6.43;;;;;;;;;;5003541;28;20575;-81
2022/01/29 11:55:06;;;;;;;17.00;6.60;;;;;;;;;;4991350;28;20050;-80
2022/01/29 11:57:34;;;;;;;13.63;6.55;;;;;;;;;;4999022;28;20073;-81
2022/01/29 12:00:34;;;;;;;15.43;6.53;;;;;;;;;;5001426;28;20077;-81
2022/01/29 12:03:02;;;;;;;12.57;6.35;;;;;;;;;;5002336;28;20357;-80
2022/01/29 12:09:08;;;;;;;15.30;7.05;;;;;;;;;;4994234;28;20049;-80
2022/01/29 12:11:41;;;;;;;19.50;7.85;;;;;;;;;;4999973;28;20046;-81
2022/01/29 12:14:12;;;;;;;16.55;7.25;;;;;;;;;;4998141;28;20049;-80
2022/01/29 12:16:57;;;;;;;12.85;5.95;;;;;;;;;;4983599;28;20434;-80
2022/01/29 12:19:33;;;;;;;15.35;6.68;;;;;;;;;;4999553;28;20089;-80
2022/01/29 12:22:01;;;;;;;14.98;6.72;;;;;;;;;;4988568;23;20058;-76
2022/01/29 12:24:28;;;;;;;14.80;6.53;;;;;;;;;;4955996;28;20054;-77
2022/01/29 12:26:58;;;;;;;11.98;6.28;;;;;;;;;;4981059;28;20051;-77
2022/01/29 12:29:39;;;;;;;12.52;5.97;;;;;;;;;;4955087;28;20479;-76
2022/01/29 12:32:09;;;;;;;15.38;6.32;;;;;;;;;;4965174;28;20151;-76
2022/01/29 12:34:54;;;;;;;9.93;5.65;;;;;;;;;;4965675;28;20058;-76
2022/01/29 12:37:22;;;;;;;11.63;6.25;;;;;;;;;;4956547;28;20051;-76
2022/01/29 12:40:20;;;;;;;15.00;5.93;;;;;;;;;;4956130;28;20053;-76
2022/01/29 12:42:59;;;;;;;14.85;6.65;;;;;;;;;;4955232;28;20060;-76
2022/01/29 12:45:30;;;;;;;11.93;5.50;;;;;;;;;;4956559;28;20395;-76
2022/01/29 12:48:08;;;;;;;13.45;5.47;;;;;;;;;;4966082;28;20054;-76
2022/01/29 12:50:38;;;;;;;12.75;5.05;;;;;;;;;;4969732;28;20058;-76
2022/01/29 12:53:08;;;;;;;14.10;5.30;;;;;;;;;;4971401;28;20050;-76
2022/01/29 12:55:36;;;;;;;9.15;5.25;;;;;;;;;;4963016;28;20062;-77
2022/01/29 12:58:04;;;;;;;13.77;5.20;;;;;;;;;;4972863;28;20046;-77
2022/01/29 13:00:33;;;;;;;11.10;5.00;;;;;;;;;;4965178;28;20059;-77
2022/01/29 13:03:09;;;;;;;11.40;5.30;;;;;;;;;;4968581;28;20054;-76
2022/01/29 13:05:42;;;;;;;17.35;5.30;;;;;;;;;;4965425;28;21049;-77
2022/01/29 13:08:22;;;;;;;12.32;5.95;;;;;;;;;;4969327;28;20057;-76
2022/01/29 13:10:50;;;;;;;13.77;4.72;;;;;;;;;;4945240;28;20412;-77
2022/01/29 13:13:32;;;;;;;8.63;4.80;;;;;;;;;;4970286;28;20053;-77
2022/01/29 13:16:00;;;;;;;10.00;4.10;;;;;;;;;;4965780;28;20051;-77
2022/01/29 13:18:29;;;;;;;11.60;4.63;;;;;;;;;;4962852;28;20043;-77
2022/01/29 13:20:59;;;;;;;11.80;3.58;;;;;;;;;;4971022;28;20421;-77
2022/01/29 13:23:32;;;;;;;11.45;3.83;;;;;;;;;;4978534;28;20054;-77
2022/01/29 13:26:13;;;;;;;7.65;3.03;;;;;;;;;;4984135;28;20093;-77
2022/01/29 13:28:46;;;;;;;12.05;3.60;;;;;;;;;;4963534;28;20041;-77
2022/01/29 13:31:15;;;;;;;6.85;3.50;;;;;;;;;;4987750;28;20149;-77
2022/01/29 13:33:46;;;;;;;10.52;3.10;;;;;;;;;;4980172;28;20457;-78
2022/01/29 13:36:14;;;;;;;8.02;2.97;;;;;;;;;;4978527;28;20042;-79
2022/01/29 13:38:42;;;;;;;5.53;2.90;;;;;;;;;;4987911;28;20050;-78
2022/01/29 13:41:23;;;;;;;6.53;2.80;;;;;;;;;;4968526;28;20532;-78
2022/01/29 13:43:52;;;;;;;8.30;2.70;;;;;;;;;;4965215;28;20507;-80
2022/01/29 13:46:25;;;;;;;7.68;2.92;;;;;;;;;;4980078;28;20042;-78
2022/01/29 13:48:56;;;;;;;9.65;2.53;;;;;;;;;;4985320;28;20077;-78
2022/01/29 13:51:50;;;;;;;7.40;2.83;;;;;;;;;;4986628;28;20526;-78
2022/01/29 13:54:22;;;;;;;9.38;2.72;;;;;;;;;;4984900;28;20058;-78
2022/01/29 13:56:50;;;;;;;6.38;1.98;;;;;;;;;;4972534;28;20058;-77
2022/01/29 13:59:19;;;;;;;7.50;1.98;;;;;;;;;;4966665;28;20052;-77
2022/01/29 14:01:57;;;;;;;6.07;2.28;;;;;;;;;;4984612;28;20053;-77
2022/01/29 14:04:40;;;;;;;8.90;2.28;;;;;;;;;;4980416;28;20050;-77
2022/01/29 14:07:10;;;;;;;10.43;2.20;;;;;;;;;;4943556;28;20057;-77
2022/01/29 14:09:47;;;;;;;9.00;2.92;;;;;;;;;;4985435;28;20046;-77
2022/01/29 14:12:27;;;;;;;6.18;2.03;;;;;;;;;;4979623;28;20046;-77
2022/01/29 14:14:58;;;;;;;8.73;2.25;;;;;;;;;;4981318;28;20050;-76
2022/01/29 14:17:29;;;;;;;11.15;3.22;;;;;;;;;;4984429;28;20046;-77
2022/01/29 14:19:59;;;;;;;8.38;2.47;;;;;;;;;;4977968;28;20632;-79
2022/01/29 14:22:30;;;;;;;5.80;2.20;;;;;;;;;;4987123;28;20483;-79
2022/01/29 14:25:00;;;;;;;6.95;1.90;;;;;;;;;;4977885;28;20141;-80
2022/01/29 14:27:31;;;;;;;11.85;2.42;;;;;;;;;;4984476;28;20050;-79
2022/01/29 14:30:00;;;;;;;4.80;2.08;;;;;;;;;;4984134;28;20498;-78
2022/01/29 14:32:28;;;;;;;6.70;2.70;;;;;;;;;;4986558;28;20150;-79
2022/01/29 14:35:13;;;;;;;7.57;2.03;;;;;;;;;;4989018;28;20070;-79
2022/01/29 14:37:42;;;;;;;6.43;1.88;;;;;;;;;;4990112;28;20050;-79
2022/01/29 14:40:12;;;;;;;6.80;2.10;;;;;;;;;;4985760;28;20054;-79
2022/01/29 14:42:44;;;;;;;7.63;1.77;;;;;;;;;;4984969;28;20100;-79
2022/01/29 14:45:14;;;;;;;14.98;2.10;;;;;;;;;;4987850;28;20415;-79
2022/01/29 14:47:46;;;;;;;10.48;1.90;;;;;;;;;;4984676;28;20503;-79
2022/01/29 14:50:16;;;;;;;6.35;1.83;;;;;;;;;;4987929;28;20100;-79
2022/01/29 14:52:44;;;;;;;6.55;2.00;;;;;;;;;;4986406;28;20050;-82
2022/01/29 14:55:13;;;;;;;5.63;1.85;;;;;;;;;;4986300;28;20058;-80
2022/01/29 14:57:40;;;;;;;8.00;2.67;;;;;;;;;;4961882;28;20057;-79
2022/01/29 15:00:08;;;;;;;9.32;2.00;;;;;;;;;;4987443;28;20486;-80
2022/01/29 15:02:36;;;;;;;7.63;2.17;;;;;;;;;;4982449;28;20054;-79
2022/01/29 15:05:06;;;;;;;8.00;2.00;;;;;;;;;;4986414;28;20976;-80
2022/01/29 15:07:34;;;;;;;6.25;1.85;;;;;;;;;;4991148;28;20055;-80
2022/01/29 15:10:05;;;;;;;7.88;1.95;;;;;;;;;;4951480;28;20145;-80
2022/01/29 15:12:34;;;;;;;5.22;2.28;;;;;;;;;;4946575;28;20460;-80
2022/01/29 15:15:03;;;;;;;6.85;1.65;;;;;;;;;;4983124;28;20054;-80
2022/01/29 15:17:33;;;;;;;9.20;3.20;;;;;;;;;;4981215;28;20061;-80
2022/01/29 15:20:00;;;;;;;10.35;1.90;;;;;;;;;;4985609;28;20065;-80
2022/01/29 15:22:28;;;;;;;7.43;2.00;;;;;;;;;;4986391;28;20451;-80
2022/01/29 15:24:56;;;;;;;11.02;2.10;;;;;;;;;;4987813;28;21113;-80
2022/01/29 15:27:24;;;;;;;8.38;1.90;;;;;;;;;;4989654;28;20053;-80
2022/01/29 15:29:52;;;;;;;8.00;2.08;;;;;;;;;;4986615;28;20054;-80
2022/01/29 15:32:20;;;;;;;8.55;2.03;;;;;;;;;;4985327;28;20506;-80
2022/01/29 15:34:48;;;;;;;9.45;2.33;;;;;;;;;;4986168;28;20061;-80
2022/01/29 15:37:19;;;;;;;12.38;2.30;;;;;;;;;;4985552;28;20057;-81
2022/01/29 15:39:46;;;;;;;6.95;1.88;;;;;;;;;;4971895;28;20092;-80
2022/01/29 15:42:34;;;;;;;11.85;2.05;;;;;;;;;;4983345;28;20514;-80
2022/01/29 15:45:03;;;;;;;14.32;1.83;;;;;;;;;;4989799;28;20061;-79
2022/01/29 15:47:30;;;;;;;11.32;1.90;;;;;;;;;;4962063;28;20042;-79
2022/01/29 15:49:58;;;;;;;4.03;1.38;;;;;;;;;;4970495;28;20062;-79
2022/01/29 15:52:26;;;;;;;11.73;1.90;;;;;;;;;;4986795;28;20345;-79
2022/01/29 15:54:54;;;;;;;6.28;1.30;;;;;;;;;;4985867;28;20050;-79
2022/01/29 15:57:23;;;;;;;17.13;2.00;;;;;;;;;;4987649;28;20050;-79
2022/01/29 15:59:52;;;;;;;12.10;1.65;;;;;;;;;;4989671;28;20057;-79
2022/01/29 16:02:20;;;;;;;17.08;1.95;;;;;;;;;;4975752;28;20054;-79
2022/01/29 16:04:54;;;;;;;7.40;1.48;;;;;;;;;;4989766;28;20137;-79
2022/01/29 16:07:22;;;;;;;12.90;2.45;;;;;;;;;;4988490;28;20476;-80
2022/01/29 16:09:50;;;;;;;14.38;1.70;;;;;;;;;;4972569;28;20117;-80
2022/01/29 16:12:18;;;;;;;17.30;2.55;;;;;;;;;;4989407;28;20042;-79
2022/01/29 16:14:46;;;;;;;16.95;2.92;;;;;;;;;;4965735;28;20051;-79
2022/01/29 16:17:14;;;;;;;15.50;3.47;;;;;;;;;;4984395;28;20080;-80
2022/01/29 16:19:42;;;;;;;19.30;3.53;;;;;;;;;;4974634;28;20041;-80
2022/01/29 16:22:09;;;;;;;12.98;2.70;;;;;;;;;;4986283;28;20049;-79
2022/01/29 16:24:38;;;;;;;10.10;1.65;;;;;;;;;;4990596;28;20478;-80
2022/01/29 16:27:06;;;;;;;22.20;2.25;;;;;;;;;;4968522;28;20189;-80
2022/01/29 16:29:34;;;;;;;16.90;2.78;;;;;;;;;;4968245;28;20050;-80
2022/01/29 16:32:02;;;;;;;15.80;2.83;;;;;;;;;;4985445;28;20495;-78
2022/01/29 16:34:30;;;;;;;16.77;2.53;;;;;;;;;;4986877;28;20132;-79
2022/01/29 16:36:59;;;;;;;26.17;4.90;;;;;;;;;;4969015;28;20062;-79
2022/01/29 16:39:26;;;;;;;27.58;6.43;;;;;;;;;;4963780;28;20136;-80
2022/01/29 16:41:58;;;;;;;10.32;2.50;;;;;;;;;;4986331;28;20412;-79
2022/01/29 16:44:26;;;;;;;23.92;3.05;;;;;;;;;;4988841;28;20042;-78
2022/01/29 16:46:54;;;;;;;12.00;2.90;;;;;;;;;;4985259;28;20058;-79
2022/01/29 16:49:22;;;;;;;13.32;3.25;;;;;;;;;;4965834;28;20672;-79
2022/01/29 16:51:50;;;;;;;21.42;3.05;;;;;;;;;;4989084;28;20060;-79
2022/01/29 16:54:18;;;;;;;20.27;3.15;;;;;;;;;;4988829;28;20057;-79
2022/01/29 16:56:46;;;;;;;11.70;2.42;;;;;;;;;;4986701;28;20054;-79
2022/01/29 16:59:14;;;;;;;17.33;3.28;;;;;;;;;;4985157;28;20486;-78
2022/01/29 17:01:42;;;;;;;22.17;3.60;;;;;;;;;;4958533;28;20059;-78
2022/01/29 17:04:16;;;;;;;17.17;2.90;;;;;;;;;;4987316;28;20046;-78
2022/01/29 17:06:46;;;;;;;18.20;3.22;;;;;;;;;;4987893;28;20060;-78
2022/01/29 17:09:17;;;;;;;19.45;3.47;;;;;;;;;;4986636;28;20039;-78
2022/01/29 17:11:44;;;;;;;19.27;3.13;;;;;;;;;;4963087;28;20046;-79
2022/01/29 17:14:12;;;;;;;16.40;2.38;;;;;;;;;;4986601;28;20052;-82
2022/01/29 17:16:45;;;;;;;16.55;2.38;;;;;;;;;;4976473;28;20050;-81
2022/01/29 17:19:15;;;;;;;24.80;3.17;;;;;;;;;;4947602;28;20046;-82
2022/01/29 17:21:42;;;;;;;20.88;4.05;;;;;;;;;;4965906;28;20058;-80
2022/01/29 17:24:10;;;;;;;23.92;4.70;;;;;;;;;;4985034;28;20049;-81
2022/01/29 17:26:38;;;;;;;29.30;5.53;;;;;;;;;;4984437;28;20081;-81
2022/01/29 17:29:06;;;;;;;25.05;5.03;;;;;;;;;;4985779;28;20050;-81
2022/01/29 17:31:34;;;;;;;36.95;7.68;;;;;;;;;;4986617;28;21076;-81
2022/01/29 17:34:02;;;;;;;26.45;5.63;;;;;;;;;;4984780;28;20057;-81
2022/01/29 17:36:30;;;;;;;34.60;4.65;;;;;;;;;;4987797;28;20054;-80
2022/01/29 17:38:58;;;;;;;27.30;4.93;;;;;;;;;;4943595;28;20510;-80
2022/01/29 17:41:26;;;;;;;25.35;6.03;;;;;;;;;;4992234;28;20041;-80
2022/01/29 17:43:54;;;;;;;42.47;5.15;;;;;;;;;;4973032;28;20141;-81
2022/01/29 17:46:22;;;;;;;25.65;4.20;;;;;;;;;;4988819;28;20045;-81
2022/01/29 17:48:50;;;;;;;31.00;5.10;;;;;;;;;;4973125;28;20410;-81
2022/01/29 17:51:18;;;;;;;32.30;5.03;;;;;;;;;;4992988;28;20054;-81
2022/01/29 17:53:46;;;;;;;27.95;5.55;;;;;;;;;;5000854;28;20101;-81
2022/01/29 17:56:14;;;;;;;31.40;5.07;;;;;;;;;;5005743;28;20074;-81
2022/01/29 17:58:42;;;;;;;38.17;4.75;;;;;;;;;;5009090;28;20048;-81
2022/01/29 18:01:11;;;;;;;37.00;5.57;;;;;;;;;;4989178;28;20050;-81
2022/01/29 18:03:40;;;;;;;30.15;5.50;;;;;;;;;;4990382;28;20042;-81
2022/01/29 18:06:08;;;;;;;29.10;3.88;;;;;;;;;;4970352;28;20050;-81
2022/01/29 18:08:36;;;;;;;31.50;5.22;;;;;;;;;;4974518;28;20061;-81
2022/01/29 18:11:04;;;;;;;36.25;4.00;;;;;;;;;;4984056;28;20050;-81